createdAt,value
2023-04-19T00:02:06.822Z,99859.28
2023-04-19T00:04:33.900Z,99870.25
2023-04-19T00:09:36.285Z,99858.34
2023-04-19T00:12:06.995Z,99851.59
2023-04-19T00:14:33.576Z,99848.41
2023-04-19T00:17:00.269Z,99846.97
2023-04-19T00:19:27.292Z,99850.91
2023-04-19T00:22:17.736Z,99847.91
2023-04-19T00:25:08.964Z,99845.81
2023-04-19T00:27:55.538Z,99837.91
2023-04-19T00:30:22.095Z,99843.06
2023-04-19T00:32:48.867Z,99841.31
2023-04-19T00:35:15.512Z,99832.94
2023-04-19T00:37:42.138Z,99836.69
2023-04-19T00:40:12.180Z,99832.63
2023-04-19T00:42:59.408Z,99832.81
2023-04-19T00:45:26.247Z,99833.75
2023-04-19T00:47:53.903Z,99836.97
2023-04-19T00:50:21.075Z,99834.16
2023-04-19T00:53:34.422Z,99816.38
2023-04-19T00:56:22.725Z,99822.22
2023-04-19T00:58:49.460Z,99818.78
2023-04-19T01:01:16.247Z,99817.87
2023-04-19T01:03:43.305Z,99819.28
2023-04-19T01:06:10.388Z,99809.53
2023-04-19T01:08:36.982Z,99810.34
2023-04-19T01:13:59.863Z,99806.62
2023-04-19T01:16:27.236Z,99803.50
2023-04-19T01:18:56.240Z,99799.72
2023-04-19T01:29:28.557Z,99798.66
2023-04-19T01:31:55.122Z,99790.59
2023-04-19T01:34:23.215Z,99793.16
2023-04-19T01:36:49.982Z,99784.53
2023-04-19T01:39:16.814Z,99779.22
2023-04-19T01:44:18.680Z,99780.75
2023-04-19T01:46:47.607Z,99776.50
2023-04-19T01:49:14.229Z,99775.19
2023-04-19T01:51:40.962Z,99778.38
2023-04-19T01:54:07.627Z,99776.50
2023-04-19T01:57:32.445Z,99776.19
2023-04-19T02:00:24.157Z,99770.69
2023-04-19T02:02:51.871Z,99769.38
2023-04-19T02:05:18.551Z,99768.75
2023-04-19T02:07:45.224Z,99765.94
2023-04-19T02:12:52.625Z,99760.31
2023-04-19T02:15:19.212Z,99764.63
2023-04-19T02:17:46.723Z,99768.50
2023-04-19T02:20:13.309Z,99761.22
2023-04-19T02:22:39.911Z,99753.59
2023-04-19T02:25:06.995Z,99748.09
2023-04-19T02:27:35.185Z,99756.00
2023-04-19T02:30:02.271Z,99753.41
2023-04-19T02:32:28.876Z,99752.16
2023-04-19T02:34:55.441Z,99745.75
2023-04-19T02:38:00.633Z,99745.75
2023-04-19T02:40:47.014Z,99743.72
2023-04-19T02:43:13.619Z,99737.47
2023-04-19T02:45:41.204Z,99734.41
2023-04-19T02:48:07.861Z,99733.28
2023-04-19T02:50:37.407Z,99735.16
2023-04-19T02:53:03.960Z,99723.50
2023-04-19T02:58:05.828Z,99727.72
2023-04-19T03:00:32.673Z,99724.13
2023-04-19T03:02:59.399Z,99725.22
2023-04-19T03:05:26.285Z,99721.97
2023-04-19T03:08:18.926Z,99717.69
2023-04-19T03:11:01.342Z,99713.66
2023-04-19T03:13:27.878Z,99709.72
2023-04-19T03:15:54.447Z,99708.72
2023-04-19T03:18:21.742Z,99704.78
2023-04-19T03:20:48.362Z,99706.22
2023-04-19T03:23:14.943Z,99701.94
2023-04-19T03:28:16.750Z,99703.41
2023-04-19T03:30:43.484Z,99691.09
2023-04-19T03:33:10.163Z,99699.13
2023-04-19T03:35:36.781Z,99694.84
2023-04-19T03:38:03.336Z,99692.31
2023-04-19T03:41:13.365Z,99693.31
2023-04-19T03:44:23.383Z,99696.97
2023-04-19T03:46:49.937Z,99692.09
2023-04-19T03:49:16.478Z,99693.75
2023-04-19T03:51:43.056Z,99687.47
2023-04-19T03:54:10.157Z,99689.41
2023-04-19T03:56:36.738Z,99687.16
2023-04-19T03:59:03.310Z,99689.09
2023-04-19T04:01:46.135Z,99690.09
2023-04-19T04:04:13.225Z,99692.12
2023-04-19T04:06:40.235Z,99697.31
2023-04-19T04:09:06.829Z,99698.84
2023-04-19T04:11:55.284Z,99692.12
2023-04-19T04:14:42.169Z,99699.97
2023-04-19T04:17:08.754Z,99697.41
2023-04-19T04:19:35.339Z,99698.44
2023-04-19T04:22:01.964Z,99691.84
2023-04-19T04:24:28.557Z,99684.91
2023-04-19T04:26:57.924Z,99693.88
2023-04-19T04:29:24.602Z,99692.25
2023-04-19T04:31:51.407Z,99685.12
2023-04-19T04:34:18.087Z,99688.69
2023-04-19T04:36:44.795Z,99680.75
2023-04-19T04:39:12.406Z,99682.78
2023-04-19T04:41:42.178Z,99680.44
2023-04-19T04:44:12.674Z,99674.88
2023-04-19T04:46:39.585Z,99681.25
2023-04-19T04:49:06.590Z,99679.31
2023-04-19T04:51:33.210Z,99681.53
2023-04-19T04:53:59.851Z,99674.31
2023-04-19T04:56:27.112Z,99682.31
2023-04-19T04:58:53.891Z,99676.72
2023-04-19T05:01:21.673Z,99678.34
2023-04-19T05:03:48.324Z,99667.91
2023-04-19T05:06:14.937Z,99677.03
2023-04-19T05:08:41.613Z,99674.97
2023-04-19T05:11:08.871Z,99674.69
2023-04-19T05:13:35.737Z,99673.59
2023-04-19T05:16:02.486Z,99676.81
2023-04-19T05:18:29.126Z,99673.50
2023-04-19T05:20:57.232Z,99674.47
2023-04-19T05:23:23.803Z,99672.28
2023-04-19T05:25:50.540Z,99673.81
2023-04-19T05:28:17.128Z,99677.03
2023-04-19T05:30:43.910Z,99678.50
2023-04-19T05:33:10.512Z,99676.84
2023-04-19T05:35:37.052Z,99678.66
2023-04-19T05:38:03.627Z,99671.72
2023-04-19T05:40:30.435Z,99674.69
2023-04-19T05:42:56.982Z,99679.44
2023-04-19T05:45:23.737Z,99678.81
2023-04-19T05:47:50.628Z,99679.16
2023-04-19T05:50:18.515Z,99676.16
2023-04-19T05:52:45.092Z,99676.66
2023-04-19T05:55:11.714Z,99676.97
2023-04-19T05:57:38.303Z,99671.97
2023-04-19T06:00:05.457Z,99675.19
2023-04-19T06:02:32.242Z,99674.03
2023-04-19T06:05:02.478Z,99670.28
2023-04-19T06:07:34.128Z,99672.63
2023-04-19T06:10:02.528Z,99670.12
2023-04-19T06:12:29.190Z,99665.50
2023-04-19T06:14:55.879Z,99669.69
2023-04-19T06:17:25.291Z,99663.22
2023-04-19T06:19:53.182Z,99664.03
2023-04-19T06:22:20.512Z,99659.75
2023-04-19T06:24:47.969Z,99667.88
2023-04-19T06:27:16.798Z,99663.81
2023-04-19T06:29:43.387Z,99663.22
2023-04-19T06:32:11.863Z,99661.72
2023-04-19T06:34:38.442Z,99661.88
2023-04-19T06:37:05.084Z,99657.78
2023-04-19T06:39:31.614Z,99658.69
2023-04-19T06:42:05.603Z,99660.81
2023-04-19T06:44:32.167Z,99656.78
2023-04-19T06:46:58.778Z,99660.78
2023-04-19T06:49:25.441Z,99655.66
2023-04-19T06:51:52.066Z,99659.34
2023-04-19T06:54:18.762Z,99652.59
2023-04-19T06:56:50.465Z,99654.34
2023-04-19T06:59:19.948Z,99660.19
2023-04-19T07:01:47.625Z,99656.81
2023-04-19T07:04:15.104Z,99657.03
2023-04-19T07:06:42.303Z,99650.16
2023-04-19T07:09:08.911Z,99650.72
2023-04-19T07:11:35.596Z,99651.41
2023-04-19T07:17:06.169Z,99645.75
2023-04-19T07:19:53.080Z,99641.78
2023-04-19T07:22:19.646Z,99640.94
2023-04-19T07:24:46.273Z,99635.25
2023-04-19T07:27:14.421Z,99641.97
2023-04-19T07:33:52.824Z,99639.06
2023-04-19T07:36:19.773Z,99633.66
2023-04-19T07:38:46.336Z,99632.38
2023-04-19T07:41:13.019Z,99634.91
2023-04-19T07:43:40.618Z,99634.22
2023-04-19T07:46:12.049Z,99629.47
2023-04-19T07:48:38.913Z,99629.47
2023-04-19T07:51:10.402Z,99625.75
2023-04-19T07:53:38.063Z,99632.66
2023-04-19T07:56:05.027Z,99630.09
2023-04-19T07:58:31.666Z,99633.66
2023-04-19T08:00:58.526Z,99633.81
2023-04-19T08:03:25.419Z,99632.91
2023-04-19T08:05:52.294Z,99633.41
2023-04-19T08:08:19.169Z,99633.75
2023-04-19T08:10:47.628Z,99635.37
2023-04-19T08:13:14.190Z,99636.63
2023-04-19T08:18:10.197Z,99631.69
2023-04-19T08:20:36.959Z,99635.47
2023-04-19T08:23:10.836Z,99640.19
2023-04-19T08:25:51.014Z,99640.00
2023-04-19T08:28:18.654Z,99632.69
2023-04-19T08:30:45.332Z,99632.34
2023-04-19T08:33:11.959Z,99633.94
2023-04-19T08:35:41.398Z,99628.69
2023-04-19T08:38:08.944Z,99628.72
2023-04-19T08:40:35.740Z,99625.25
2023-04-19T08:43:06.994Z,99624.78
2023-04-19T08:45:34.534Z,99632.59
2023-04-19T08:48:02.580Z,99622.06
2023-04-19T08:50:35.880Z,99626.63
2023-04-19T08:53:23.691Z,99624.53
2023-04-19T08:56:10.778Z,99618.06
2023-04-19T08:58:57.678Z,99623.47
2023-04-19T09:01:35.422Z,99614.09
2023-04-19T09:04:21.628Z,99615.28
2023-04-19T09:06:55.224Z,99610.78
2023-04-19T09:11:59.971Z,99608.41
2023-04-19T09:14:29.277Z,99610.59
2023-04-19T09:17:15.873Z,99606.22
2023-04-19T09:19:47.253Z,99608.44
2023-04-19T09:22:14.720Z,99611.22
2023-04-19T09:27:12.434Z,99607.69
2023-04-19T09:29:39.627Z,99605.97
2023-04-19T09:32:06.487Z,99606.56
2023-04-19T09:34:33.586Z,99610.94
2023-04-19T09:37:33.070Z,99603.09
2023-04-19T09:40:27.874Z,99605.59
2023-04-19T09:43:08.848Z,99597.72
2023-04-19T09:45:41.924Z,99595.56
2023-04-19T09:48:09.647Z,99599.81
2023-04-19T09:53:20.651Z,99594.34
2023-04-19T09:55:57.763Z,99593.53
2023-04-19T09:58:34.354Z,99591.25
2023-04-19T10:01:16.279Z,99593.84
2023-04-19T10:03:46.646Z,99586.06
2023-04-19T10:06:36.008Z,99584.00
2023-04-19T10:09:04.859Z,99576.47
2023-04-19T10:11:42.979Z,99579.06
2023-04-19T10:14:12.102Z,99572.19
2023-04-19T10:16:39.356Z,99571.28
2023-04-19T10:19:10.014Z,99581.44
2023-04-19T10:21:38.314Z,99575.56
2023-04-19T10:24:05.806Z,99570.69
2023-04-19T10:27:07.940Z,99573.91
2023-04-19T10:30:00.192Z,99563.25
2023-04-19T10:32:37.345Z,99574.00
2023-04-19T10:35:37.663Z,99573.53
2023-04-19T10:38:16.511Z,99567.91
2023-04-19T10:40:56.032Z,99562.44
2023-04-19T10:43:24.628Z,99561.06
2023-04-19T10:46:19.989Z,99555.09
2023-04-19T10:49:14.860Z,99567.91
2023-04-19T10:51:49.832Z,99559.66
2023-04-19T10:54:34.364Z,99557.25
2023-04-19T10:57:11.838Z,99550.19
2023-04-19T10:59:44.312Z,99546.16
2023-04-19T11:02:23.026Z,99546.88
2023-04-19T11:04:52.434Z,99545.09
2023-04-19T11:07:21.338Z,99544.53
2023-04-19T11:09:49.730Z,99560.03
2023-04-19T11:12:20.986Z,99557.78
2023-04-19T11:14:57.583Z,99550.50
2023-04-19T11:17:31.169Z,99548.31
2023-04-19T11:20:03.557Z,99552.97
2023-04-19T11:22:33.047Z,99553.69
2023-04-19T11:25:07.284Z,99554.03
2023-04-19T11:27:34.788Z,99555.19
2023-04-19T11:30:19.601Z,99548.12
2023-04-19T11:32:50.454Z,99547.56
2023-04-19T11:35:21.729Z,99551.47
2023-04-19T11:37:48.649Z,99550.78
2023-04-19T11:40:17.457Z,99551.69
2023-04-19T11:42:44.512Z,99549.97
2023-04-19T11:45:25.857Z,99551.47
2023-04-19T11:47:56.210Z,99541.44
2023-04-19T11:50:45.574Z,99553.72
2023-04-19T11:53:21.592Z,99548.22
2023-04-19T11:55:53.548Z,99549.50
2023-04-19T11:58:33.906Z,99552.91
2023-04-19T12:01:08.959Z,99540.47
2023-04-19T12:06:37.042Z,99543.09
2023-04-19T12:09:08.780Z,99546.53
2023-04-19T12:11:50.537Z,99551.25
2023-04-19T12:14:56.397Z,99543.47
2023-04-19T12:20:46.617Z,99542.97
2023-04-19T12:23:16.804Z,99543.00
2023-04-19T12:25:46.384Z,99543.91
2023-04-19T12:28:25.103Z,99539.16
2023-04-19T12:30:53.575Z,99533.44
2023-04-19T12:36:16.130Z,99534.59
2023-04-19T12:38:42.982Z,99530.72
2023-04-19T12:41:09.727Z,99532.00
2023-04-19T12:43:36.353Z,99528.28
2023-04-19T12:46:02.963Z,99527.41
2023-04-19T12:48:57.401Z,99528.78
2023-04-19T12:51:49.584Z,99523.19
2023-04-19T12:54:23.640Z,99524.41
2023-04-19T12:56:50.244Z,99515.00
2023-04-19T12:59:17.412Z,99523.19
2023-04-19T13:01:44.283Z,99523.41
2023-04-19T13:04:12.042Z,99516.41
2023-04-19T13:06:39.904Z,99525.53
2023-04-19T13:09:14.204Z,99514.00
2023-04-19T13:11:41.390Z,99525.12
2023-04-19T13:14:08.332Z,99513.84
2023-04-19T13:16:34.973Z,99521.94
2023-04-19T13:19:01.686Z,99526.09
2023-04-19T13:21:28.459Z,99519.50
2023-04-19T13:23:55.204Z,99518.00
2023-04-19T13:26:22.079Z,99515.75
2023-04-19T13:28:48.716Z,99503.19
2023-04-19T13:31:15.545Z,99514.94
2023-04-19T13:33:42.246Z,99506.44
2023-04-19T13:36:09.048Z,99507.50
2023-04-19T13:38:40.762Z,99512.66
2023-04-19T13:41:08.951Z,99515.13
2023-04-19T13:43:35.717Z,99503.00
2023-04-19T13:46:02.274Z,99508.22
2023-04-19T13:48:29.122Z,99511.56
2023-04-19T13:50:56.627Z,99514.13
2023-04-19T13:53:24.221Z,99515.53
2023-04-19T13:55:51.157Z,99513.03
2023-04-19T13:58:17.919Z,99510.41
2023-04-19T14:00:45.095Z,99496.97
2023-04-19T14:03:12.106Z,99498.34
2023-04-19T14:05:38.716Z,99494.97
2023-04-19T14:08:08.457Z,99503.16
2023-04-19T14:10:36.320Z,99502.94
2023-04-19T14:13:03.339Z,99499.78
2023-04-19T14:15:29.989Z,99494.28
2023-04-19T14:17:57.225Z,99495.16
2023-04-19T14:20:23.809Z,99505.84
2023-04-19T14:22:51.922Z,99498.87
2023-04-19T14:25:18.488Z,99500.16
2023-04-19T14:27:45.493Z,99500.97
2023-04-19T14:30:12.465Z,99510.53
2023-04-19T14:32:39.217Z,99493.47
2023-04-19T14:35:06.291Z,99497.06
2023-04-19T14:37:32.900Z,99506.22
2023-04-19T14:39:59.498Z,99504.16
2023-04-19T14:42:26.060Z,99504.16
2023-04-19T14:44:52.765Z,99504.31
2023-04-19T14:47:20.101Z,99505.87
2023-04-19T14:49:47.181Z,99506.63
2023-04-19T14:52:13.793Z,99495.97
2023-04-19T14:54:40.454Z,99508.13
2023-04-19T14:57:07.005Z,99508.75
2023-04-19T14:59:33.655Z,99507.31
2023-04-19T15:02:00.218Z,99514.44
2023-04-19T15:04:26.958Z,99516.25
2023-04-19T15:06:53.587Z,99516.09
2023-04-19T15:09:20.150Z,99515.19
2023-04-19T15:11:46.991Z,99521.78
2023-04-19T15:14:13.801Z,99528.44
2023-04-19T15:16:40.458Z,99533.47
2023-04-19T15:19:07.536Z,99530.88
2023-04-19T15:21:34.642Z,99537.31
2023-04-19T15:24:22.901Z,99534.13
2023-04-19T15:26:49.602Z,99526.00
2023-04-19T15:29:16.345Z,99524.91
2023-04-19T15:31:43.262Z,99519.59
2023-04-19T15:34:40.769Z,99521.34
2023-04-19T15:37:43.493Z,99528.50
2023-04-19T15:40:12.648Z,99532.50
2023-04-19T15:42:39.317Z,99525.97
2023-04-19T15:45:07.140Z,99530.81
2023-04-19T15:47:34.673Z,99529.94
2023-04-19T15:50:01.687Z,99529.19
2023-04-19T15:52:28.294Z,99538.47
2023-04-19T15:54:54.894Z,99538.75
2023-04-19T15:57:21.424Z,99531.41
2023-04-19T15:59:47.966Z,99532.00
2023-04-19T16:02:14.923Z,99538.03
2023-04-19T16:04:41.712Z,99546.28
2023-04-19T16:07:08.353Z,99540.62
2023-04-19T16:09:50.902Z,99546.97
2023-04-19T16:12:17.536Z,99547.66
2023-04-19T16:14:44.218Z,99548.63
2023-04-19T16:17:10.753Z,99542.88
2023-04-19T16:19:37.320Z,99543.47
2023-04-19T16:22:05.699Z,99551.03
2023-04-19T16:24:32.260Z,99547.12
2023-04-19T16:26:58.859Z,99547.91
2023-04-19T16:29:25.453Z,99547.19
2023-04-19T16:31:52.402Z,99549.72
2023-04-19T16:34:19.880Z,99551.41
2023-04-19T16:36:46.556Z,99559.13
2023-04-19T16:39:13.161Z,99562.44
2023-04-19T16:41:41.111Z,99563.03
2023-04-19T16:44:07.673Z,99571.19
2023-04-19T16:46:34.227Z,99565.16
2023-04-19T16:49:01.061Z,99563.72
2023-04-19T16:51:28.496Z,99565.16
2023-04-19T16:53:55.938Z,99573.09
2023-04-19T16:56:25.386Z,99571.41
2023-04-19T16:58:52.076Z,99569.91
2023-04-19T17:01:19.070Z,99573.16
2023-04-19T17:03:46.709Z,99570.25
2023-04-19T17:06:13.466Z,99580.41
2023-04-19T17:08:40.062Z,99575.00
2023-04-19T17:11:06.964Z,99578.25
2023-04-19T17:13:33.942Z,99570.44
2023-04-19T17:16:00.610Z,99584.66
2023-04-19T17:18:27.197Z,99574.94
2023-04-19T17:20:53.779Z,99576.44
2023-04-19T17:23:21.222Z,99585.38
2023-04-19T17:25:48.156Z,99592.94
2023-04-19T17:28:14.751Z,99582.69
2023-04-19T17:30:41.313Z,99592.66
2023-04-19T17:33:08.082Z,99598.25
2023-04-19T17:35:34.868Z,99585.84
2023-04-19T17:38:01.414Z,99604.25
2023-04-19T17:40:29.461Z,99610.81
2023-04-19T17:42:58.955Z,99611.22
2023-04-19T17:45:26.427Z,99613.91
2023-04-19T17:47:55.321Z,99616.50
2023-04-19T17:50:26.698Z,99628.28
2023-04-19T17:52:54.635Z,99626.53
2023-04-19T17:55:21.535Z,99632.03
2023-04-19T17:57:48.154Z,99632.41
2023-04-19T18:10:49.051Z,99635.00
2023-04-19T18:13:15.728Z,99643.56
2023-04-19T18:15:42.345Z,99648.78
2023-04-19T18:18:08.988Z,99648.94
2023-04-19T18:23:31.221Z,99660.44
2023-04-19T18:28:35.477Z,99659.59
2023-04-19T18:31:02.195Z,99669.38
2023-04-19T18:33:28.914Z,99667.72
2023-04-19T18:36:31.540Z,99667.31
2023-04-19T18:42:14.186Z,99677.94
2023-04-19T18:47:12.328Z,99681.97
2023-04-19T18:49:39.194Z,99674.66
2023-04-19T18:52:05.786Z,99677.09
2023-04-19T18:54:32.571Z,99676.59
2023-04-19T18:57:21.529Z,99674.03
2023-04-19T18:59:46.104Z,99681.25
2023-04-19T19:02:12.838Z,99684.28
2023-04-19T19:04:52.012Z,99679.06
2023-04-19T19:09:57.045Z,99682.44
2023-04-19T19:12:26.227Z,99693.28
2023-04-19T19:14:55.739Z,99694.56
2023-04-19T19:17:28.196Z,99693.16
2023-04-19T19:19:54.910Z,99689.81
2023-04-19T19:22:28.289Z,99688.06
2023-04-19T19:24:55.905Z,99698.53
2023-04-19T19:27:22.571Z,99705.97
2023-04-19T19:29:49.270Z,99704.78
2023-04-19T19:32:16.133Z,99702.28
2023-04-19T19:34:53.770Z,99706.22
2023-04-19T19:37:21.880Z,99710.94
2023-04-19T19:39:48.493Z,99706.63
2023-04-19T19:42:39.398Z,99711.00
2023-04-19T19:45:30.957Z,99711.13
2023-04-19T19:48:01.378Z,99717.53
2023-04-19T19:52:59.363Z,99718.53
2023-04-19T19:55:26.069Z,99714.38
2023-04-19T20:00:42.497Z,99716.53
2023-04-19T20:03:09.090Z,99725.03
2023-04-19T20:05:35.890Z,99720.34
2023-04-19T20:08:13.049Z,99724.88
2023-04-19T20:10:41.806Z,99719.34
2023-04-19T20:13:08.655Z,99721.56
2023-04-19T20:15:36.802Z,99722.06
2023-04-19T20:18:04.658Z,99721.19
2023-04-19T20:20:31.535Z,99722.41
2023-04-19T20:22:58.141Z,99710.69
2023-04-19T20:25:24.805Z,99721.56
2023-04-19T20:27:51.472Z,99722.06
2023-04-19T20:30:31.702Z,99721.78
2023-04-19T20:32:58.445Z,99726.66
2023-04-19T20:35:25.083Z,99720.38
2023-04-19T20:37:51.643Z,99724.53
2023-04-19T20:40:27.411Z,99730.62
2023-04-19T20:43:28.168Z,99733.31
2023-04-19T20:46:12.997Z,99738.09
2023-04-19T20:48:39.634Z,99743.47
2023-04-19T20:51:06.263Z,99742.16
2023-04-19T20:53:32.973Z,99740.13
2023-04-19T20:56:00.339Z,99742.41
2023-04-19T20:58:26.896Z,99745.75
2023-04-19T21:00:53.455Z,99745.16
2023-04-19T21:03:20.288Z,99742.47
2023-04-19T21:05:46.964Z,99742.16
2023-04-19T21:08:15.084Z,99744.50
2023-04-19T21:10:41.680Z,99745.75
2023-04-19T21:13:08.228Z,99742.97
2023-04-19T21:15:36.894Z,99750.84
2023-04-19T21:18:03.910Z,99749.44
2023-04-19T21:20:30.634Z,99752.28
2023-04-19T21:22:57.305Z,99749.97
2023-04-19T21:25:23.832Z,99749.06
2023-04-19T21:27:50.378Z,99749.13
2023-04-19T21:30:17.031Z,99750.56
2023-04-19T21:32:43.745Z,99744.88
2023-04-19T21:35:10.407Z,99741.69
2023-04-19T21:37:37.756Z,99746.47
2023-04-19T21:40:05.129Z,99740.94
2023-04-19T21:42:31.681Z,99741.22
2023-04-19T21:44:58.263Z,99744.81
2023-04-19T21:47:24.859Z,99737.81
2023-04-19T21:49:51.509Z,99743.00
2023-04-19T21:52:18.057Z,99736.69
2023-04-19T21:54:44.785Z,99746.03
2023-04-19T21:57:11.481Z,99747.06
2023-04-19T21:59:38.151Z,99746.47
2023-04-19T22:02:04.886Z,99753.03
2023-04-19T22:04:31.752Z,99750.81
2023-04-19T22:07:02.637Z,99754.38
2023-04-19T22:09:30.617Z,99741.28
2023-04-19T22:11:57.197Z,99751.13
2023-04-19T22:14:23.961Z,99748.69
2023-04-19T22:16:50.952Z,99759.53
2023-04-19T22:19:18.243Z,99754.72
2023-04-19T22:21:46.695Z,99760.00
2023-04-19T22:24:13.287Z,99761.69
2023-04-19T22:26:39.857Z,99765.84
2023-04-19T22:29:06.577Z,99769.09
2023-04-19T22:31:33.207Z,99768.47
2023-04-19T22:33:59.800Z,99765.97
2023-04-19T22:36:26.506Z,99779.09
2023-04-19T22:38:53.058Z,99779.25
2023-04-19T22:41:19.614Z,99778.19
2023-04-19T22:43:46.357Z,99774.38
2023-04-19T22:46:16.287Z,99775.44
2023-04-19T22:48:42.874Z,99781.47
2023-04-19T22:51:09.676Z,99786.41
2023-04-19T22:53:37.605Z,99786.28
2023-04-19T22:56:04.933Z,99789.53
2023-04-19T22:58:31.924Z,99783.31
2023-04-19T23:00:58.570Z,99784.06
2023-04-19T23:03:25.574Z,99781.19
2023-04-19T23:05:54.235Z,99781.47
2023-04-19T23:08:27.846Z,99776.53
2023-04-19T23:10:55.042Z,99774.06
2023-04-19T23:13:21.624Z,99775.31
2023-04-19T23:15:57.228Z,99773.41
2023-04-19T23:18:52.089Z,99782.44
2023-04-19T23:21:24.014Z,99783.62
2023-04-19T23:23:50.866Z,99770.66
2023-04-19T23:26:17.504Z,99779.97
2023-04-19T23:28:44.079Z,99779.75
2023-04-19T23:31:11.647Z,99786.22
2023-04-19T23:33:38.298Z,99782.22
2023-04-19T23:36:05.168Z,99780.44
2023-04-19T23:38:31.765Z,99779.41
2023-04-19T23:40:58.417Z,99781.63
2023-04-19T23:43:24.952Z,99784.06
2023-04-19T23:45:51.484Z,99787.53
2023-04-19T23:48:18.028Z,99788.28
2023-04-19T23:51:03.118Z,99791.25
2023-04-19T23:53:54.578Z,99785.53
2023-04-19T23:56:25.007Z,99778.81
2023-04-19T23:58:51.890Z,99778.22
